createdAt,value
2023-04-19T00:00:48.124Z,15.82
2023-04-19T00:05:39.759Z,13.55
2023-04-19T00:10:31.336Z,13.52
2023-04-19T00:15:22.989Z,15.63
2023-04-19T00:20:14.632Z,14.68
2023-04-19T00:25:06.721Z,12.13
2023-04-19T00:29:58.317Z,14.43
2023-04-19T00:34:50.161Z,16.02
2023-04-19T00:39:41.802Z,12.88
2023-04-19T00:44:33.361Z,13.70
2023-04-19T00:49:26.076Z,16.27
2023-04-19T00:54:18.760Z,13.20
2023-04-19T00:59:11.710Z,16.02
2023-04-19T01:04:03.531Z,17.85
2023-04-19T01:08:55.232Z,17.52
2023-04-19T01:13:46.779Z,15.48
2023-04-19T01:18:40.649Z,18.30
2023-04-19T01:23:32.412Z,18.75
2023-04-19T01:28:24.006Z,22.38
2023-04-19T01:33:15.761Z,18.48
2023-04-19T01:38:07.626Z,14.85
2023-04-19T01:42:59.368Z,14.85
2023-04-19T01:47:51.703Z,16.40
2023-04-19T01:52:43.418Z,13.57
2023-04-19T01:57:35.082Z,15.07
2023-04-19T02:02:27.004Z,17.98
2023-04-19T02:07:18.740Z,17.50
2023-04-19T02:12:10.286Z,15.90
2023-04-19T02:17:01.870Z,18.60
2023-04-19T02:21:57.653Z,16.45
2023-04-19T02:26:49.340Z,15.57
2023-04-19T02:31:40.910Z,15.63
2023-04-19T02:36:32.482Z,17.67
2023-04-19T02:41:24.013Z,13.90
2023-04-19T02:46:15.628Z,17.33
2023-04-19T02:51:07.326Z,22.00
2023-04-19T02:55:59.039Z,14.80
2023-04-19T03:00:50.603Z,18.70
2023-04-19T03:05:42.194Z,19.98
2023-04-19T03:10:33.766Z,17.02
2023-04-19T03:15:25.352Z,17.90
2023-04-19T03:20:17.342Z,18.65
2023-04-19T03:25:12.473Z,18.58
2023-04-19T03:30:04.541Z,22.95
2023-04-19T03:34:56.106Z,19.65
2023-04-19T03:39:47.651Z,16.65
2023-04-19T03:44:39.239Z,21.40
2023-04-19T03:49:31.507Z,17.95
2023-04-19T03:54:23.080Z,17.52
2023-04-19T03:59:14.619Z,23.77
2023-04-19T04:04:06.378Z,16.90
2023-04-19T04:08:58.020Z,18.35
2023-04-19T04:13:50.502Z,15.18
2023-04-19T04:18:42.428Z,17.65
2023-04-19T04:23:33.999Z,15.25
2023-04-19T04:28:25.752Z,23.38
2023-04-19T04:33:18.104Z,19.70
2023-04-19T04:38:21.526Z,22.10
2023-04-19T04:43:15.543Z,19.25
2023-04-19T04:48:07.203Z,20.05
2023-04-19T04:52:58.797Z,21.73
2023-04-19T04:57:50.648Z,21.00
2023-04-19T05:02:42.731Z,20.02
2023-04-19T05:07:34.331Z,15.65
2023-04-19T05:12:25.916Z,20.67
2023-04-19T05:17:18.487Z,19.98
2023-04-19T05:22:10.291Z,21.95
2023-04-19T05:27:01.935Z,22.42
2023-04-19T05:31:53.640Z,24.15
2023-04-19T05:36:45.427Z,19.55
2023-04-19T05:41:37.121Z,20.20
2023-04-19T05:46:28.751Z,21.50
2023-04-19T05:51:20.396Z,19.15
2023-04-19T05:56:11.966Z,24.25
2023-04-19T06:01:04.604Z,24.02
2023-04-19T06:05:56.396Z,20.48
2023-04-19T06:10:54.862Z,20.00
2023-04-19T06:15:50.093Z,21.55
2023-04-19T06:20:42.186Z,21.15
2023-04-19T06:25:33.952Z,21.98
2023-04-19T06:30:25.816Z,24.95
2023-04-19T06:35:17.538Z,21.50
2023-04-19T06:40:09.673Z,25.85
2023-04-19T06:45:01.638Z,19.45
2023-04-19T06:49:54.019Z,21.55
2023-04-19T06:54:49.756Z,22.45
2023-04-19T06:59:41.330Z,21.17
2023-04-19T07:04:33.561Z,27.48
2023-04-19T07:09:25.207Z,27.42
2023-04-19T07:14:19.331Z,18.80
2023-04-19T07:19:10.910Z,27.13
2023-04-19T07:24:02.590Z,21.75
2023-04-19T07:28:54.161Z,23.05
2023-04-19T07:33:45.809Z,25.35
2023-04-19T07:38:37.378Z,23.45
2023-04-19T07:43:30.267Z,21.88
2023-04-19T07:48:21.995Z,27.27
2023-04-19T07:53:13.588Z,18.48
2023-04-19T07:58:05.173Z,23.23
2023-04-19T08:02:57.450Z,19.80
2023-04-19T08:07:51.909Z,28.42
2023-04-19T08:12:50.662Z,23.05
2023-04-19T08:17:53.346Z,22.00
2023-04-19T08:22:45.676Z,19.17
2023-04-19T08:27:37.341Z,20.98
2023-04-19T08:32:28.981Z,21.98
2023-04-19T08:37:20.912Z,17.50
2023-04-19T08:42:24.797Z,15.88
2023-04-19T08:47:31.216Z,15.90
2023-04-19T08:52:27.251Z,15.25
2023-04-19T08:57:18.805Z,14.93
2023-04-19T09:02:10.479Z,14.82
2023-04-19T09:07:02.357Z,22.30
2023-04-19T09:11:53.918Z,21.00
2023-04-19T09:16:45.847Z,19.30
2023-04-19T09:21:37.657Z,16.73
2023-04-19T09:26:30.041Z,16.45
2023-04-19T09:31:39.193Z,16.95
2023-04-19T09:36:33.894Z,23.35
2023-04-19T09:41:26.551Z,20.83
2023-04-19T09:46:31.893Z,16.95
2023-04-19T09:51:23.596Z,19.83
2023-04-19T09:56:15.518Z,19.83
2023-04-19T10:01:15.040Z,16.77
2023-04-19T10:06:10.949Z,16.33
2023-04-19T10:11:13.417Z,15.95
2023-04-19T10:16:18.019Z,16.92
2023-04-19T10:21:11.183Z,14.07
2023-04-19T10:26:04.853Z,16.55
2023-04-19T10:31:03.834Z,18.50
2023-04-19T10:35:57.741Z,20.23
2023-04-19T10:40:52.429Z,14.50
2023-04-19T10:45:45.357Z,15.52
2023-04-19T10:50:59.231Z,16.45
2023-04-19T10:55:51.636Z,20.45
2023-04-19T11:00:43.303Z,14.30
2023-04-19T11:06:30.992Z,13.93
2023-04-19T11:11:22.644Z,13.80
2023-04-19T11:16:14.317Z,19.35
2023-04-19T11:21:05.991Z,19.05
2023-04-19T11:25:59.223Z,15.95
2023-04-19T11:30:54.175Z,14.82
2023-04-19T11:35:45.754Z,17.20
2023-04-19T11:40:37.635Z,13.45
2023-04-19T11:45:34.381Z,15.20
2023-04-19T11:50:39.018Z,14.77
2023-04-19T11:55:33.370Z,20.52
2023-04-19T12:00:29.284Z,18.75
2023-04-19T12:05:21.295Z,17.63
2023-04-19T12:10:13.772Z,18.05
2023-04-19T12:15:08.100Z,14.55
2023-04-19T12:19:59.699Z,15.45
2023-04-19T12:24:52.252Z,14.82
2023-04-19T12:29:44.055Z,14.30
2023-04-19T12:34:36.056Z,13.85
2023-04-19T12:39:28.806Z,14.80
2023-04-19T12:44:20.478Z,12.35
2023-04-19T12:49:12.078Z,13.48
2023-04-19T12:54:03.846Z,17.67
2023-04-19T12:58:55.530Z,11.35
2023-04-19T13:03:47.700Z,8.80
2023-04-19T13:08:45.439Z,12.45
2023-04-19T13:13:39.321Z,14.57
2023-04-19T13:18:31.065Z,10.13
2023-04-19T13:23:22.644Z,12.00
2023-04-19T13:28:14.467Z,11.52
2023-04-19T13:33:08.264Z,9.90
2023-04-19T13:38:00.518Z,10.25
2023-04-19T13:42:53.239Z,16.05
2023-04-19T13:47:45.905Z,11.18
2023-04-19T13:52:37.513Z,11.82
2023-04-19T13:57:29.131Z,7.32
2023-04-19T14:02:21.313Z,11.55
2023-04-19T14:07:13.085Z,7.55
2023-04-19T14:12:04.850Z,9.98
2023-04-19T14:16:56.425Z,7.57
2023-04-19T14:21:48.036Z,9.70
2023-04-19T14:26:39.633Z,7.88
2023-04-19T14:31:31.584Z,11.95
2023-04-19T14:36:23.525Z,4.80
2023-04-19T14:41:15.157Z,6.28
2023-04-19T14:46:08.992Z,7.00
2023-04-19T14:51:00.665Z,4.40
2023-04-19T14:55:52.245Z,6.50
2023-04-19T15:00:44.461Z,6.35
2023-04-19T15:05:36.738Z,7.70
2023-04-19T15:10:28.462Z,2.28
2023-04-19T15:15:20.042Z,3.70
2023-04-19T15:20:11.926Z,6.43
2023-04-19T15:25:04.218Z,8.75
2023-04-19T15:29:55.812Z,4.90
2023-04-19T15:34:47.389Z,3.38
2023-04-19T15:39:38.984Z,2.78
2023-04-19T15:44:30.721Z,4.43
2023-04-19T15:49:22.263Z,9.43
2023-04-19T15:54:14.869Z,2.08
2023-04-19T15:59:06.490Z,1.48
2023-04-19T16:03:58.302Z,2.17
2023-04-19T16:08:50.396Z,4.68
2023-04-19T16:13:41.996Z,1.95
2023-04-19T16:18:33.613Z,2.03
2023-04-19T16:23:25.563Z,5.63
2023-04-19T16:28:17.357Z,1.25
2023-04-19T16:33:09.018Z,4.72
2023-04-19T16:38:04.330Z,3.65
2023-04-19T16:42:56.021Z,3.42
2023-04-19T16:47:48.164Z,1.27
2023-04-19T16:52:40.049Z,2.33
2023-04-19T16:57:32.365Z,2.05
2023-04-19T17:02:24.155Z,7.07
2023-04-19T17:07:15.942Z,2.63
2023-04-19T17:12:07.708Z,8.25
2023-04-19T17:16:59.271Z,3.17
2023-04-19T17:21:50.985Z,4.18
2023-04-19T17:26:42.695Z,2.08
2023-04-19T17:31:34.332Z,5.13
2023-04-19T17:36:26.799Z,4.30
2023-04-19T17:41:18.441Z,2.92
2023-04-19T17:46:13.259Z,4.47
2023-04-19T17:51:05.053Z,3.10
2023-04-19T17:55:56.906Z,3.92
2023-04-19T18:00:48.732Z,5.05
2023-04-19T18:05:40.822Z,3.72
2023-04-19T18:10:32.684Z,2.25
2023-04-19T18:15:24.424Z,3.85
2023-04-19T18:20:16.269Z,4.70
2023-04-19T18:25:08.611Z,4.82
2023-04-19T18:30:03.595Z,4.47
2023-04-19T18:34:55.239Z,3.17
2023-04-19T18:39:47.131Z,1.60
2023-04-19T18:44:52.750Z,3.03
2023-04-19T18:49:55.619Z,1.77
2023-04-19T18:54:56.241Z,2.75
2023-04-19T18:59:47.880Z,4.00
2023-04-19T19:04:52.015Z,3.85
2023-04-19T19:09:55.660Z,3.72
2023-04-19T19:14:47.989Z,3.75
2023-04-19T19:19:39.704Z,1.85
2023-04-19T19:24:32.603Z,1.83
2023-04-19T19:29:25.777Z,2.33
2023-04-19T19:34:27.271Z,2.63
2023-04-19T19:39:22.187Z,1.63
2023-04-19T19:44:13.867Z,1.50
2023-04-19T19:49:06.570Z,3.05
2023-04-19T19:53:58.658Z,2.95
2023-04-19T19:58:51.963Z,3.50
2023-04-19T20:03:44.245Z,2.05
2023-04-19T20:08:39.421Z,5.85
2023-04-19T20:13:33.217Z,1.77
2023-04-19T20:18:25.527Z,3.17
2023-04-19T20:23:19.863Z,3.95
2023-04-19T20:28:12.514Z,1.80
2023-04-19T20:33:04.256Z,2.17
2023-04-19T20:38:02.426Z,2.35
2023-04-19T20:47:47.075Z,3.05
2023-04-19T20:52:38.879Z,5.65
2023-04-19T20:57:30.888Z,3.13
2023-04-19T21:02:23.081Z,4.30
2023-04-19T21:07:14.908Z,4.85
2023-04-19T21:12:06.538Z,2.50
2023-04-19T21:16:58.148Z,2.95
2023-04-19T21:21:49.831Z,2.00
2023-04-19T21:26:41.406Z,2.08
2023-04-19T21:31:33.152Z,3.17
2023-04-19T21:36:24.930Z,4.75
2023-04-19T21:41:16.561Z,2.28
2023-04-19T21:46:08.220Z,4.07
2023-04-19T21:51:00.812Z,1.77
2023-04-19T21:55:52.496Z,3.30
2023-04-19T22:00:44.353Z,2.40
2023-04-19T22:05:36.402Z,4.63
2023-04-19T22:10:29.041Z,4.18
2023-04-19T22:15:21.058Z,5.70
2023-04-19T22:20:14.873Z,2.60
2023-04-19T22:25:06.995Z,3.05
2023-04-19T22:29:58.727Z,3.42
2023-04-19T22:34:50.609Z,3.72
2023-04-19T22:39:42.170Z,2.55
2023-04-19T22:44:33.934Z,5.60
2023-04-19T22:49:25.552Z,1.35
2023-04-19T22:54:17.247Z,1.27
2023-04-19T22:59:08.920Z,4.53
2023-04-19T23:04:00.700Z,5.55
2023-04-19T23:08:52.402Z,2.67
2023-04-19T23:13:44.379Z,2.28
2023-04-19T23:18:36.300Z,1.45
2023-04-19T23:23:27.848Z,1.98
2023-04-19T23:28:19.539Z,2.35
2023-04-19T23:33:11.304Z,2.15
2023-04-19T23:38:02.978Z,2.63
2023-04-19T23:42:54.524Z,2.97
2023-04-19T23:47:46.207Z,3.53
2023-04-19T23:52:37.809Z,1.73
2023-04-19T23:57:29.511Z,3.45
